Time;durP1;ratioP1;P1;durP2;ratioP2;P2;SDS_P1;SDS_P2;PMS_P1;PMS_P2;Temp;Humidity;BMP_temperature;BMP_pressure;BME280_temperature;BME280_humidity;BME280_pressure;Samples;Min_cycle;Max_cycle;Signal;HPM_P1;HPM_P2
2022/08/22 02:19:03;;;;;;;4.93;1.08;;;;;;;25.05;58.12;100126.06;5108919;27;20105;-80
2022/08/22 02:22:19;;;;;;;1.35;0.80;;;;;;;25.09;58.01;100124.00;5110396;28;20054;-79
2022/08/22 02:25:15;;;;;;;3.03;1.00;;;;;;;25.15;57.66;100115.94;5104990;28;20055;-80
2022/08/22 02:28:18;;;;;;;4.95;1.23;;;;;;;25.23;57.25;100125.72;5103395;28;20047;-80
2022/08/22 02:31:38;;;;;;;4.65;1.13;;;;;;;25.31;57.15;100123.56;5099362;28;20039;-79
2022/08/22 02:34:42;;;;;;;3.85;0.98;;;;;;;25.29;57.16;100126.81;5098877;28;20043;-79
2022/08/22 02:38:01;;;;;;;2.50;0.63;;;;;;;25.27;56.45;100117.31;5103102;28;20524;-79
2022/08/22 02:41:17;;;;;;;1.45;0.70;;;;;;;24.99;57.23;100119.44;5098826;28;20058;-79
2022/08/22 02:44:28;;;;;;;2.25;0.90;;;;;;;24.89;57.39;100114.09;5112690;27;20047;-78
2022/08/22 02:47:26;;;;;;;2.67;0.90;;;;;;;24.83;57.80;100116.56;5108021;28;20043;-78
2022/08/22 02:50:36;;;;;;;2.63;1.13;;;;;;;24.78;57.69;100124.63;5112618;28;20050;-77
2022/08/22 02:53:34;;;;;;;2.30;0.68;;;;;;;24.69;58.00;100128.72;5109223;28;20067;-79
2022/08/22 02:56:31;;;;;;;2.17;0.77;;;;;;;24.63;58.15;100129.66;5109234;28;20043;-78
2022/08/22 03:00:01;;;;;;;3.22;1.27;;;;;;;24.55;58.06;100126.22;5105428;28;20431;-79
2022/08/22 03:02:55;;;;;;;2.65;0.88;;;;;;;24.57;57.92;100128.56;5112563;28;20047;-79
2022/08/22 03:05:54;;;;;;;4.07;0.93;;;;;;;24.51;57.77;100125.50;5108694;28;20047;-78
2022/08/22 03:08:58;;;;;;;0.68;0.68;;;;;;;24.49;57.60;100119.56;5111421;28;20047;-79
2022/08/22 03:11:48;;;;;;;3.75;0.95;;;;;;;24.50;57.25;100126.69;5089937;28;20051;-78
2022/08/22 03:15:00;;;;;;;3.60;1.00;;;;;;;24.52;57.12;100118.72;5087513;28;20047;-79
2022/08/22 03:17:51;;;;;;;1.02;0.80;;;;;;;24.56;57.12;100127.78;5088255;28;20508;-79
2022/08/22 03:21:10;;;;;;;1.65;0.90;;;;;;;24.62;56.99;100117.75;5102785;28;20039;-79
2022/08/22 03:24:05;;;;;;;1.77;1.13;;;;;;;24.56;57.16;100125.00;5110635;28;20527;-78
2022/08/22 03:26:58;;;;;;;1.33;0.95;;;;;;;24.52;57.28;100124.28;5107591;28;20047;-78
2022/08/22 03:29:50;;;;;;;2.28;0.90;;;;;;;24.50;57.16;100123.91;5077351;28;20052;-78
2022/08/22 03:33:07;;;;;;;1.58;0.93;;;;;;;24.46;57.20;100125.19;5074850;28;20040;-79
2022/08/22 03:36:26;;;;;;;2.15;0.95;;;;;;;24.51;57.28;100122.72;5074308;28;20047;-78
2022/08/22 03:39:23;;;;;;;2.97;1.75;;;;;;;24.54;57.13;100116.28;5092089;28;20055;-78
2022/08/22 03:42:34;;;;;;;3.55;1.05;;;;;;;24.59;56.96;100124.16;5098666;28;20428;-79
2022/08/22 03:45:25;;;;;;;1.52;1.00;;;;;;;24.54;57.26;100121.06;5094703;28;20047;-78
2022/08/22 03:48:19;;;;;;;1.33;1.00;;;;;;;24.57;57.41;100123.00;5088233;28;20044;-79
2022/08/22 03:51:42;;;;;;;3.37;0.80;;;;;;;24.64;57.17;100120.09;5076611;28;20405;-79
2022/08/22 03:55:00;;;;;;;3.13;1.00;;;;;;;24.77;56.86;100114.69;5078037;28;20258;-78
2022/08/22 03:58:22;;;;;;;2.85;1.17;;;;;;;24.78;56.72;100119.84;5093941;28;20039;-78
2022/08/22 04:01:40;;;;;;;8.98;1.33;;;;;;;24.69;56.91;100117.59;5091446;28;20073;-78
2022/08/22 04:04:54;;;;;;;1.63;0.93;;;;;;;24.71;57.05;100123.53;5094150;28;20043;-79
2022/08/22 04:07:57;;;;;;;3.80;1.10;;;;;;;24.82;56.95;100123.34;5087014;28;20039;-79
2022/08/22 04:11:07;;;;;;;1.60;1.13;;;;;;;24.76;56.94;100118.69;5094052;28;20543;-78
2022/08/22 04:14:26;;;;;;;4.25;1.10;;;;;;;24.71;57.26;100120.75;5095741;28;20075;-79
2022/08/22 04:17:35;;;;;;;4.00;0.90;;;;;;;24.64;57.02;100115.31;5100907;28;20043;-79
2022/08/22 04:20:58;;;;;;;2.40;1.08;;;;;;;24.54;57.47;100127.41;5084749;28;20055;-79
2022/08/22 04:24:05;;;;;;;1.98;0.90;;;;;;;24.47;57.41;100126.75;5093776;28;20047;-80
2022/08/22 04:26:51;;;;;;;3.97;1.20;;;;;;;24.31;57.89;100123.88;5088569;28;20063;-80
2022/08/22 04:29:47;;;;;;;3.67;1.02;;;;;;;24.26;58.02;100119.56;5096341;28;20043;-79
2022/08/22 04:32:48;;;;;;;2.45;1.00;;;;;;;24.21;57.86;100126.41;5100205;28;20047;-79
2022/08/22 04:35:38;;;;;;;4.35;1.02;;;;;;;24.28;57.64;100122.69;5092569;28;20043;-79
2022/08/22 04:38:31;;;;;;;2.25;0.85;;;;;;;24.27;57.63;100118.38;5091198;28;20044;-79
2022/08/22 04:41:51;;;;;;;3.00;0.85;;;;;;;24.26;57.46;100122.34;5091791;28;20045;-79
2022/08/22 04:44:42;;;;;;;2.55;0.90;;;;;;;24.21;57.69;100122.84;5090593;28;20047;-79
2022/08/22 04:47:56;;;;;;;2.25;0.90;;;;;;;24.26;57.38;100128.69;5095912;28;20392;-79
2022/08/22 04:50:56;;;;;;;5.90;0.75;;;;;;;24.23;57.30;100120.41;5075453;28;20051;-79
2022/08/22 04:54:02;;;;;;;1.67;0.80;;;;;;;24.22;57.09;100122.44;5075962;28;20043;-79
2022/08/22 04:56:58;;;;;;;5.80;1.02;;;;;;;24.31;56.94;100126.66;5047753;22;20073;-81
2022/08/22 04:59:43;;;;;;;2.85;0.80;;;;;;;24.38;56.86;100126.53;5017751;28;20418;-82
2022/08/22 05:02:27;;;;;;;3.83;1.45;;;;;;;24.45;56.59;100140.28;5017963;28;20048;-82
2022/08/22 05:05:17;;;;;;;1.42;0.70;;;;;;;24.51;56.19;100135.81;5017745;28;20073;-81
2022/08/22 05:08:09;;;;;;;3.08;0.90;;;;;;;24.55;56.04;100142.09;5017629;28;20041;-81
2022/08/22 05:10:55;;;;;;;0.85;0.70;;;;;;;24.45;56.71;100145.84;5012498;28;20522;-81
2022/08/22 05:13:46;;;;;;;12.88;1.35;;;;;;;24.33;56.64;100138.91;5017280;28;20056;-81
2022/08/22 05:16:37;;;;;;;3.05;1.10;;;;;;;24.25;56.96;100134.66;5016828;28;20037;-81
2022/08/22 05:19:29;;;;;;;3.33;1.00;;;;;;;24.30;56.68;100145.31;5018095;28;20044;-81
2022/08/22 05:22:20;;;;;;;4.18;1.02;;;;;;;24.43;55.29;100151.81;5018133;28;20057;-81
2022/08/22 05:25:10;;;;;;;1.83;1.33;;;;;;;24.48;54.17;100156.16;5015165;28;20053;-81
2022/08/22 05:28:14;;;;;;;4.30;0.88;;;;;;;24.60;56.19;100149.97;5017343;28;20037;-81
2022/08/22 05:31:09;;;;;;;1.85;1.00;;;;;;;24.56;55.98;100152.03;5010625;28;20044;-81
2022/08/22 05:34:05;;;;;;;1.38;0.70;;;;;;;24.48;55.50;100156.91;5011940;28;20045;-81
2022/08/22 05:36:57;;;;;;;4.20;1.10;;;;;;;24.61;55.52;100152.31;5004477;28;20061;-81
2022/08/22 05:39:46;;;;;;;4.32;1.20;;;;;;;24.65;53.55;100155.81;5015982;28;20068;-81
2022/08/22 05:42:35;;;;;;;6.72;1.35;;;;;;;24.63;52.72;100158.25;5013258;28;20049;-81
2022/08/22 05:45:21;;;;;;;6.80;1.33;;;;;;;24.73;54.01;100155.69;5014569;28;20045;-81
2022/08/22 05:48:19;;;;;;;5.60;1.67;;;;;;;24.84;54.92;100154.28;5012529;28;20045;-81
2022/08/22 05:51:20;;;;;;;2.13;0.90;;;;;;;24.88;54.45;100152.25;5014482;28;20045;-81
2022/08/22 05:54:13;;;;;;;8.70;1.08;;;;;;;24.91;53.36;100156.19;5016465;28;20049;-81
2022/08/22 05:57:15;;;;;;;8.23;1.10;;;;;;;24.94;52.66;100149.78;5018168;28;20049;-81
2022/08/22 06:00:09;;;;;;;4.80;1.10;;;;;;;24.90;54.64;100162.94;5016961;28;20053;-81
2022/08/22 06:03:15;;;;;;;11.32;1.85;;;;;;;24.97;53.80;100165.59;5002676;28;20045;-81
2022/08/22 06:06:10;;;;;;;10.13;1.98;;;;;;;24.96;52.34;100158.47;5015334;28;20049;-81
2022/08/22 06:09:03;;;;;;;3.65;1.05;;;;;;;25.03;53.92;100172.25;5011914;28;20057;-81
2022/08/22 06:12:04;;;;;;;4.05;1.50;;;;;;;25.00;54.54;100171.09;5016803;28;20049;-81
2022/08/22 06:15:02;;;;;;;4.43;1.40;;;;;;;25.03;53.05;100172.25;5010716;28;20069;-81
2022/08/22 06:17:50;;;;;;;2.05;0.90;;;;;;;25.11;51.90;100168.91;5016305;28;20045;-82
2022/08/22 06:20:42;;;;;;;3.42;1.20;;;;;;;25.19;51.64;100174.34;5009547;28;20049;-81
2022/08/22 06:23:35;;;;;;;8.90;1.38;;;;;;;25.20;52.37;100178.66;5021240;28;20052;-81
2022/08/22 06:26:20;;;;;;;13.55;1.95;;;;;;;25.23;54.26;100180.63;5018639;28;20041;-81
2022/08/22 06:29:07;;;;;;;6.47;1.30;;;;;;;25.27;52.74;100184.09;5012996;28;20049;-82
2022/08/22 06:31:52;;;;;;;4.60;1.38;;;;;;;25.29;52.69;100182.47;5010718;28;20053;-81
2022/08/22 06:34:41;;;;;;;7.47;1.98;;;;;;;25.34;52.90;100181.97;5019196;28;20056;-81
2022/08/22 06:37:33;;;;;;;3.85;1.23;;;;;;;25.38;52.67;100179.13;5013032;28;20259;-81
2022/08/22 06:40:18;;;;;;;5.18;1.48;;;;;;;25.39;53.03;100178.69;5015918;28;20053;-81
2022/08/22 06:43:04;;;;;;;6.05;1.40;;;;;;;25.42;52.96;100175.03;5010022;28;20049;-80
2022/08/22 06:45:49;;;;;;;2.17;0.98;;;;;;;25.44;53.19;100178.19;5011379;28;20525;-81
2022/08/22 06:48:36;;;;;;;8.80;1.98;;;;;;;25.43;53.58;100178.59;5013297;28;20045;-81
2022/08/22 06:51:25;;;;;;;7.00;0.90;;;;;;;25.32;54.32;100184.38;5012832;28;20434;-81
2022/08/22 06:54:17;;;;;;;3.42;0.80;;;;;;;25.32;53.45;100181.59;5023192;28;20053;-80
2022/08/22 06:57:05;;;;;;;2.42;1.20;;;;;;;25.45;52.32;100196.44;5005581;28;20049;-81
2022/08/22 06:59:53;;;;;;;16.02;1.33;;;;;;;25.51;53.75;100183.59;5009964;28;20041;-82
2022/08/22 07:02:44;;;;;;;8.25;1.15;;;;;;;25.63;52.84;100184.19;5012674;28;20053;-80
2022/08/22 07:05:38;;;;;;;10.75;1.77;;;;;;;25.76;52.73;100185.09;5015648;28;20040;-83
2022/08/22 07:08:24;;;;;;;2.47;1.05;;;;;;;25.86;52.32;100187.63;5010366;28;20045;-81
2022/08/22 07:11:26;;;;;;;2.45;1.27;;;;;;;26.01;50.90;100181.75;5016901;28;20045;-81
2022/08/22 07:14:15;;;;;;;5.10;1.77;;;;;;;26.09;51.42;100181.16;5016759;28;20045;-81
2022/08/22 07:17:03;;;;;;;2.35;0.85;;;;;;;26.10;52.41;100181.94;5013668;28;20049;-81
2022/08/22 07:20:03;;;;;;;1.80;0.95;;;;;;;26.14;50.57;100175.06;5015550;28;20045;-82
2022/08/22 07:23:04;;;;;;;5.05;1.15;;;;;;;26.17;52.30;100178.97;5013526;28;20053;-82
2022/08/22 07:26:07;;;;;;;4.57;1.13;;;;;;;26.24;48.41;100192.78;5014819;28;20044;-84
2022/08/22 07:29:05;;;;;;;2.20;0.85;;;;;;;26.26;52.00;100191.13;5015641;28;20037;-81
2022/08/22 07:32:08;;;;;;;1.42;0.73;;;;;;;26.28;51.33;100183.13;5019021;28;20053;-82
2022/08/22 07:35:14;;;;;;;1.70;0.70;;;;;;;26.31;50.82;100182.22;5016380;28;20045;-82
2022/08/22 07:37:59;;;;;;;1.08;0.60;;;;;;;26.30;52.03;100188.25;5015788;28;20045;-84
2022/08/22 07:40:56;;;;;;;1.35;0.85;;;;;;;26.46;47.94;100187.47;5013408;28;20056;-82
2022/08/22 07:43:49;;;;;;;3.95;0.90;;;;;;;26.49;49.54;100179.00;5017752;28;20313;-81
2022/08/22 07:46:40;;;;;;;1.83;0.60;;;;;;;26.43;50.29;100179.97;5020758;28;20044;-81
2022/08/22 07:49:30;;;;;;;1.48;0.63;;;;;;;26.54;48.97;100180.50;5015967;28;20053;-81
2022/08/22 07:52:16;;;;;;;1.73;0.70;;;;;;;26.47;49.73;100180.66;5015130;28;20526;-81
2022/08/22 07:55:22;;;;;;;2.97;0.68;;;;;;;26.62;46.55;100185.44;5020259;28;20044;-81
2022/08/22 07:58:12;;;;;;;4.25;1.23;;;;;;;26.78;46.44;100176.28;5020399;28;20403;-81
2022/08/22 08:00:57;;;;;;;2.92;0.88;;;;;;;26.79;47.28;100181.41;5007356;28;20082;-81
2022/08/22 08:03:48;;;;;;;2.58;0.60;;;;;;;26.67;48.68;100175.75;5016385;28;20522;-82
2022/08/22 08:06:34;;;;;;;4.38;1.02;;;;;;;26.78;47.22;100195.81;5012496;28;20041;-82
2022/08/22 08:09:19;;;;;;;11.48;2.13;;;;;;;26.70;49.13;100186.84;5013372;28;20041;-82
2022/08/22 08:12:07;;;;;;;3.70;0.93;;;;;;;26.71;49.00;100184.84;5007717;28;20442;-81
2022/08/22 08:14:54;;;;;;;5.57;0.82;;;;;;;29.80;41.28;100189.75;5014869;28;20053;-85
2022/08/22 08:17:41;;;;;;;1.60;1.10;;;;;;;30.36;39.49;100193.13;5014123;28;20061;-84
2022/08/22 08:20:26;;;;;;;;;;;;;;;31.93;35.63;100196.25;5023023;28;20045;-82
2022/08/22 08:23:18;;;;;;;;;;;;;;;32.78;34.81;100200.53;5029016;28;19914;-84
2022/08/22 08:26:22;;;;;;;;;;;;;;;30.01;37.24;100194.56;5012139;28;19913;-82
2022/08/22 08:29:07;;;;;;;;;;;;;;;30.64;37.31;100193.22;5029021;28;19913;-85
2022/08/22 08:31:53;;;;;;;;;;;;;;;31.60;37.06;100192.59;5012318;28;19917;-85
2022/08/22 08:34:38;;;;;;;31.48;2.35;;;;;;;32.50;35.06;100194.31;5015882;28;20404;-82
2022/08/22 08:37:40;;;;;;;20.27;2.05;;;;;;;30.48;38.89;100197.84;5027323;28;20057;-82
2022/08/22 08:40:59;;;;;;;2.97;1.00;;;;;;;29.54;38.74;100203.94;5026857;28;20060;-82
2022/08/22 08:44:15;;;;;;;8.80;1.08;;;;;;;28.65;43.32;100191.50;5025920;28;20061;-82
2022/08/22 08:47:19;;;;;;;1.92;0.75;;;;;;;28.23;43.50;100193.69;5014371;28;20053;-81
2022/08/22 08:50:22;;;;;;;2.08;0.77;;;;;;;28.11;43.59;100188.84;5017099;28;20045;-80
2022/08/22 08:54:03;;;;;;;5.13;0.65;;;;;;;27.78;43.88;100188.28;5026942;28;20065;-82
2022/08/22 08:57:06;;;;;;;3.88;0.63;;;;;;;27.64;44.06;100181.88;5023217;28;20053;-79
2022/08/22 09:00:09;;;;;;;3.13;0.40;;;;;;;27.68;43.04;100184.56;5009164;28;20054;-80
2022/08/22 09:03:25;;;;;;;8.40;0.68;;;;;;;27.56;44.50;100188.91;5018682;28;20056;-81
2022/08/22 09:06:25;;;;;;;2.33;0.50;;;;;;;27.44;43.42;100183.25;5023471;28;20052;-81
2022/08/22 09:09:36;;;;;;;2.03;0.50;;;;;;;27.36;44.97;100184.69;5022039;28;20041;-82
2022/08/22 09:12:46;;;;;;;1.15;0.50;;;;;;;27.19;44.88;100176.38;5015797;28;20066;-82
2022/08/22 09:16:02;;;;;;;2.03;0.38;;;;;;;26.96;45.72;100171.03;5022510;28;20045;-84
2022/08/22 09:19:31;;;;;;;0.73;0.40;;;;;;;26.68;46.13;100168.97;5020445;28;20056;-80
2022/08/22 09:22:38;;;;;;;1.05;0.70;;;;;;;26.75;46.39;100175.16;5013889;28;20049;-82
2022/08/22 09:25:32;;;;;;;3.65;0.73;;;;;;;26.63;46.73;100169.50;5021123;28;20065;-82
2022/08/22 09:28:38;;;;;;;2.30;0.50;;;;;;;26.57;46.16;100162.88;5015630;28;20033;-82
2022/08/22 09:31:42;;;;;;;2.45;1.10;;;;;;;26.68;45.83;100164.16;5017856;28;20049;-81
2022/08/22 09:34:44;;;;;;;7.30;0.68;;;;;;;26.69;47.05;100156.59;5020969;28;20036;-80
2022/08/22 09:38:02;;;;;;;0.82;0.60;;;;;;;26.86;45.41;100157.34;5019290;28;20113;-81
2022/08/22 09:40:58;;;;;;;3.65;0.65;;;;;;;27.02;44.90;100160.13;5017212;28;20049;-80
2022/08/22 09:44:11;;;;;;;1.02;0.63;;;;;;;27.27;43.40;100151.06;5015918;28;20049;-82
2022/08/22 09:47:23;;;;;;;2.85;0.60;;;;;;;27.33;43.19;100147.25;5016589;28;20049;-81
2022/08/22 09:50:43;;;;;;;3.05;0.70;;;;;;;27.23;43.56;100145.53;5015534;28;20056;-83
2022/08/22 09:53:50;;;;;;;0.98;0.65;;;;;;;27.01;45.52;100142.59;5017011;28;20431;-80
2022/08/22 09:56:38;;;;;;;3.00;0.85;;;;;;;27.04;45.06;100144.50;5017755;28;20053;-83
2022/08/22 09:59:39;;;;;;;2.00;0.70;;;;;;;27.25;44.53;100148.69;5015535;28;20525;-83
2022/08/22 10:02:31;;;;;;;1.38;0.50;;;;;;;27.21;44.67;100136.84;5010030;28;20054;-82
2022/08/22 10:05:42;;;;;;;4.03;0.60;;;;;;;27.15;44.70;100142.19;5015711;28;20060;-82
2022/08/22 10:08:39;;;;;;;3.35;0.70;;;;;;;26.99;45.26;100133.88;5015041;28;20045;-82
2022/08/22 10:11:28;;;;;;;2.15;0.68;;;;;;;26.99;45.17;100116.34;5010821;28;20049;-82
2022/08/22 10:14:22;;;;;;;1.63;0.60;;;;;;;26.85;45.70;100128.66;5014947;28;20084;-82
2022/08/22 10:17:17;;;;;;;3.30;0.93;;;;;;;26.88;44.86;100125.00;5023426;28;20045;-83
2022/08/22 10:20:12;;;;;;;1.98;0.80;;;;;;;26.79;44.66;100124.84;5024678;28;20045;-83
2022/08/22 10:23:23;;;;;;;7.18;1.42;;;;;;;26.88;44.91;100127.78;5015714;28;20054;-83
2022/08/22 10:26:21;;;;;;;0.73;0.68;;;;;;;27.01;43.97;100125.84;5023624;28;20045;-83
2022/08/22 10:29:30;;;;;;;1.27;0.70;;;;;;;27.10;44.65;100128.78;5015280;28;20045;-83
2022/08/22 10:32:24;;;;;;;1.30;0.77;;;;;;;27.20;43.90;100124.09;5016776;28;20056;-83
2022/08/22 10:35:24;;;;;;;2.97;0.60;;;;;;;27.38;43.00;100118.00;5016045;28;20781;-83
2022/08/22 10:38:33;;;;;;;5.25;0.60;;;;;;;27.53;42.66;100111.56;5022524;28;20044;-83
2022/08/22 10:41:54;;;;;;;0.30;0.28;;;;;;;27.18;43.35;100118.97;5022799;28;20045;-83
2022/08/22 10:44:48;;;;;;;0.63;0.40;;;;;;;27.09;44.14;100107.66;5026733;28;20053;-82
2022/08/22 10:47:37;;;;;;;;;;;;;;;27.19;43.42;100109.38;5029831;28;20060;-83
2022/08/22 10:50:43;;;;;;;0.98;0.40;;;;;;;27.49;42.03;100108.09;5041092;28;19913;-83
2022/08/22 10:53:34;;;;;;;1.70;0.70;;;;;;;27.76;40.96;100104.09;5028843;28;20148;-83
2022/08/22 10:56:32;;;;;;;1.58;0.88;;;;;;;27.73;41.70;100096.63;5043041;22;20056;-79
2022/08/22 10:59:29;;;;;;;2.72;0.40;;;;;;;27.47;42.80;100095.78;5014377;28;20656;-78
2022/08/22 11:02:19;;;;;;;0.32;0.30;;;;;;;27.44;43.21;100083.47;5012820;28;20517;-77
2022/08/22 11:05:13;;;;;;;1.67;0.47;;;;;;;27.14;42.13;100082.00;5014088;28;20040;-78
2022/08/22 11:08:16;;;;;;;2.60;0.65;;;;;;;27.43;42.80;100081.91;4995574;28;20125;-79
2022/08/22 11:11:27;;;;;;;4.30;0.55;;;;;;;27.65;41.52;100082.06;4998407;28;20045;-79
2022/08/22 11:14:30;;;;;;;1.52;0.60;;;;;;;27.38;41.83;100076.88;4994253;28;20049;-78
2022/08/22 11:17:26;;;;;;;0.98;0.52;;;;;;;27.61;40.20;100070.22;4995158;28;20049;-78
2022/08/22 11:20:11;;;;;;;1.00;0.50;;;;;;;27.63;40.05;100065.75;4990205;28;20049;-77
2022/08/22 11:23:36;;;;;;;0.75;0.50;;;;;;;27.82;41.44;100065.97;4987656;28;20050;-79
2022/08/22 11:26:46;;;;;;;0.52;0.40;;;;;;;27.92;39.37;100065.63;4985493;28;20099;-77
2022/08/22 11:29:41;;;;;;;2.45;0.55;;;;;;;27.99;39.11;100068.19;4980879;28;20037;-78
2022/08/22 11:33:09;;;;;;;1.48;0.52;;;;;;;27.76;41.07;100071.34;4985734;28;20431;-77
2022/08/22 11:36:49;;;;;;;2.90;0.88;;;;;;;27.83;40.35;100073.91;4985118;28;20062;-78
2022/08/22 11:39:55;;;;;;;1.95;0.60;;;;;;;28.16;38.62;100068.06;4982154;28;20068;-79
2022/08/22 11:42:49;;;;;;;1.17;0.40;;;;;;;28.06;39.54;100065.16;4987173;28;20053;-77
2022/08/22 11:45:44;;;;;;;0.88;0.50;;;;;;;27.97;39.71;100067.88;4987417;28;20049;-79
2022/08/22 11:48:50;;;;;;;0.68;0.57;;;;;;;27.84;40.42;100061.50;4993856;28;20165;-78
2022/08/22 11:51:38;;;;;;;0.85;0.60;;;;;;;27.97;40.00;100056.69;4987846;28;20057;-77
2022/08/22 11:54:41;;;;;;;0.60;0.47;;;;;;;28.06;39.37;100048.38;4985074;28;20057;-79
2022/08/22 11:57:36;;;;;;;6.72;0.68;;;;;;;28.40;38.91;100055.22;4988106;28;20139;-79
2022/08/22 12:00:32;;;;;;;1.50;0.60;;;;;;;28.63;38.44;100052.03;4991688;28;20046;-79
2022/08/22 12:03:37;;;;;;;2.33;0.60;;;;;;;28.36;39.58;100041.38;4998313;28;20057;-79
2022/08/22 12:06:47;;;;;;;2.70;1.10;;;;;;;28.64;37.97;100036.03;4994793;28;20054;-84
2022/08/22 12:09:56;;;;;;;1.83;1.05;;;;;;;28.54;38.38;100035.16;4983775;28;20083;-80
2022/08/22 12:13:00;;;;;;;0.70;0.40;;;;;;;28.55;38.87;100039.50;4995914;28;20045;-81
2022/08/22 12:15:55;;;;;;;0.82;0.60;;;;;;;28.70;37.99;100034.97;4989138;28;20511;-80
2022/08/22 12:18:44;;;;;;;3.20;0.98;;;;;;;28.48;38.38;100039.78;4985590;28;20049;-81
2022/08/22 12:21:50;;;;;;;0.50;0.40;;;;;;;28.60;37.92;100038.94;4992474;28;20041;-80
2022/08/22 12:25:03;;;;;;;1.20;0.70;;;;;;;28.93;37.18;100033.75;4992371;28;20045;-80
2022/08/22 12:28:16;;;;;;;3.55;0.40;;;;;;;28.79;38.43;100026.69;4992341;28;20435;-77
2022/08/22 12:31:19;;;;;;;4.22;0.77;;;;;;;28.86;37.81;100017.22;4991826;28;20518;-77
2022/08/22 12:34:12;;;;;;;2.75;0.57;;;;;;;28.70;39.50;100023.75;4997872;28;20552;-78
2022/08/22 12:37:23;;;;;;;1.98;0.73;;;;;;;28.65;39.31;100027.16;4980501;28;20050;-78
2022/08/22 12:40:23;;;;;;;2.63;0.80;;;;;;;28.73;37.80;100028.50;4995751;28;20059;-80
2022/08/22 12:43:23;;;;;;;1.83;0.52;;;;;;;29.05;37.13;100021.72;4994916;28;20046;-78
2022/08/22 12:46:15;;;;;;;1.40;0.50;;;;;;;29.05;37.11;100018.91;4993906;28;20502;-78
2022/08/22 12:49:35;;;;;;;1.20;0.50;;;;;;;29.17;37.31;100020.03;4993292;28;20053;-77
2022/08/22 12:52:43;;;;;;;1.55;0.70;;;;;;;29.03;38.17;100018.56;4992514;28;20057;-78
2022/08/22 12:56:04;;;;;;;3.40;0.63;;;;;;;28.99;38.09;100022.75;4992852;28;20049;-77
2022/08/22 12:59:19;;;;;;;0.82;0.32;;;;;;;29.13;37.55;100013.78;4996082;28;20415;-77
2022/08/22 13:02:16;;;;;;;0.57;0.40;;;;;;;29.01;36.66;100006.25;4992295;28;20058;-77
2022/08/22 13:05:17;;;;;;;0.75;0.57;;;;;;;29.17;37.74;100006.81;4997533;28;20049;-77
2022/08/22 13:08:07;;;;;;;0.65;0.40;;;;;;;29.01;37.94;100009.84;4993207;28;20065;-78
2022/08/22 13:11:05;;;;;;;1.17;0.47;;;;;;;28.77;38.65;100005.97;4983855;28;20384;-78
2022/08/22 13:13:57;;;;;;;1.17;0.60;;;;;;;28.66;39.54;99999.94;4985239;28;20037;-82
2022/08/22 13:16:48;;;;;;;0.68;0.50;;;;;;;28.89;37.04;99999.53;4989315;28;20045;-79
2022/08/22 13:19:44;;;;;;;2.55;0.43;;;;;;;28.90;36.94;99999.03;4987830;28;20053;-77
2022/08/22 13:22:33;;;;;;;1.02;0.60;;;;;;;28.98;37.62;99999.56;4991681;28;20045;-79
2022/08/22 13:25:21;;;;;;;1.00;0.60;;;;;;;28.77;38.78;99992.75;4986512;28;20443;-77
2022/08/22 13:28:11;;;;;;;1.60;0.60;;;;;;;28.74;38.48;99988.09;4976789;28;20057;-76
2022/08/22 13:30:57;;;;;;;1.30;0.82;;;;;;;29.02;36.78;99993.81;4992105;28;20407;-78
2022/08/22 13:33:46;;;;;;;9.80;0.95;;;;;;;28.91;38.08;99989.41;4990988;28;20053;-78
2022/08/22 13:36:40;;;;;;;1.20;0.57;;;;;;;28.93;37.29;99986.16;4991351;28;20412;-78
2022/08/22 13:39:34;;;;;;;1.40;0.57;;;;;;;28.86;38.86;99990.00;5003291;28;20474;-77
2022/08/22 13:42:23;;;;;;;1.52;0.45;;;;;;;28.84;38.29;99978.50;4985795;28;20587;-77
2022/08/22 13:45:19;;;;;;;3.30;0.47;;;;;;;28.81;38.99;99978.63;4983101;28;20136;-77
2022/08/22 13:48:13;;;;;;;0.50;0.40;;;;;;;28.60;38.54;99968.22;4986364;28;20038;-77
2022/08/22 13:51:13;;;;;;;1.10;0.50;;;;;;;28.72;37.16;99976.56;4989789;28;20038;-76
2022/08/22 13:54:19;;;;;;;2.30;0.60;;;;;;;29.01;37.27;99972.66;4985696;28;20050;-78
2022/08/22 13:57:18;;;;;;;0.85;0.45;;;;;;;29.10;36.25;99967.13;4983331;28;20045;-78
2022/08/22 14:00:18;;;;;;;2.50;0.60;;;;;;;29.09;37.35;99971.94;4983207;28;20423;-78
2022/08/22 14:03:15;;;;;;;1.42;0.40;;;;;;;29.07;37.97;99963.22;4988744;28;20057;-77
2022/08/22 14:06:07;;;;;;;1.15;0.50;;;;;;;28.83;36.91;99964.97;4983277;28;20049;-77
2022/08/22 14:08:57;;;;;;;0.82;0.45;;;;;;;28.76;37.17;99963.19;5006272;28;20041;-77
2022/08/22 14:12:12;;;;;;;4.05;0.68;;;;;;;28.83;35.80;99962.94;4988740;28;20045;-77
2022/08/22 14:15:05;;;;;;;0.52;0.40;;;;;;;28.92;36.83;99967.81;4987818;28;20042;-78
2022/08/22 14:17:57;;;;;;;1.70;0.75;;;;;;;29.01;37.12;99953.06;4993701;28;20049;-79
2022/08/22 14:20:43;;;;;;;3.38;0.50;;;;;;;29.05;37.28;99960.09;4991101;28;20045;-79
2022/08/22 14:23:28;;;;;;;0.73;0.40;;;;;;;29.00;34.62;99963.50;4991775;28;20050;-77
2022/08/22 14:26:29;;;;;;;2.47;0.60;;;;;;;28.89;35.91;99958.31;4991979;28;20518;-78
2022/08/22 14:29:16;;;;;;;1.30;0.40;;;;;;;28.76;36.44;99949.22;4984127;28;20046;-76
2022/08/22 14:32:13;;;;;;;15.40;2.80;;;;;;;29.10;34.62;99947.53;4979166;28;20101;-77
2022/08/22 14:35:20;;;;;;;3.40;0.32;;;;;;;28.96;34.86;99951.63;4989095;28;20049;-78
2022/08/22 14:38:34;;;;;;;3.97;0.52;;;;;;;28.89;36.46;99960.31;4999699;28;20057;-78
2022/08/22 14:41:30;;;;;;;2.25;0.55;;;;;;;28.70;37.09;99951.00;4989822;28;20518;-78
2022/08/22 14:44:25;;;;;;;1.85;0.75;;;;;;;28.30;38.48;99948.09;4992583;28;20045;-76
2022/08/22 14:47:30;;;;;;;3.33;0.55;;;;;;;28.25;37.76;99947.91;4991594;28;20054;-77
2022/08/22 14:50:39;;;;;;;1.52;0.55;;;;;;;28.49;33.91;99949.81;4989830;28;20522;-78
2022/08/22 14:53:32;;;;;;;1.42;0.43;;;;;;;28.23;37.17;99944.78;4995265;28;20045;-78
2022/08/22 14:56:26;;;;;;;2.05;0.50;;;;;;;28.18;35.88;99942.56;4990012;28;20133;-78
2022/08/22 14:59:24;;;;;;;3.20;0.52;;;;;;;28.33;36.27;99943.63;4990219;28;20045;-79
2022/08/22 15:02:26;;;;;;;2.25;0.50;;;;;;;28.62;34.66;99940.53;4997901;28;20685;-78
2022/08/22 15:05:20;;;;;;;1.70;0.30;;;;;;;28.51;36.82;99938.16;4992460;28;20049;-79
2022/08/22 15:08:07;;;;;;;4.87;1.30;;;;;;;28.24;36.59;99935.94;4991459;28;20522;-80
2022/08/22 15:11:23;;;;;;;22.98;3.17;;;;;;;28.27;36.66;99935.03;4990347;28;20049;-80
2022/08/22 15:14:14;;;;;;;7.88;2.42;;;;;;;28.00;38.14;99932.75;4990724;28;20050;-79
2022/08/22 15:17:04;;;;;;;5.82;1.23;;;;;;;28.13;36.59;99929.97;4981235;28;20054;-77
2022/08/22 15:19:48;;;;;;;4.38;0.70;;;;;;;28.28;36.44;99927.44;4991228;28;20054;-79
2022/08/22 15:22:34;;;;;;;6.50;0.70;;;;;;;28.46;35.21;99921.94;4991892;28;20443;-81
2022/08/22 15:25:28;;;;;;;0.90;0.50;;;;;;;28.55;35.78;99922.00;4995504;28;20053;-79
2022/08/22 15:28:13;;;;;;;;;;;;;;;28.51;35.60;99926.94;4984968;28;20054;-79
2022/08/22 15:31:00;;;;;;;;;;;;;;;28.40;36.08;99918.16;4986486;28;19913;-80
2022/08/22 15:33:46;;;;;;;2.10;0.60;;;;;;;28.32;34.94;99920.47;5001721;28;19914;-77
2022/08/22 15:36:31;;;;;;;2.08;0.88;;;;;;;28.23;36.05;99911.25;4992284;28;20419;-79
2022/08/22 15:39:26;;;;;;;2.10;0.50;;;;;;;27.98;36.78;99907.28;4990405;28;20046;-79
2022/08/22 15:42:24;;;;;;;6.75;0.50;;;;;;;28.36;34.16;99904.31;4986715;28;20053;-78
2022/08/22 15:45:33;;;;;;;3.22;0.50;;;;;;;28.42;35.33;99912.91;4993676;28;20434;-86
2022/08/22 15:48:35;;;;;;;3.70;0.82;;;;;;;28.06;35.51;99905.00;4998520;28;20045;-79
2022/08/22 15:51:40;;;;;;;1.15;0.47;;;;;;;28.07;34.79;99915.75;4994174;28;20042;-79
2022/08/22 15:54:52;;;;;;;2.47;0.57;;;;;;;28.16;34.83;99917.06;4993567;28;20061;-79
2022/08/22 15:57:40;;;;;;;1.13;0.68;;;;;;;28.21;34.19;99913.69;4985683;28;20042;-79
2022/08/22 16:00:38;;;;;;;3.10;0.75;;;;;;;28.30;34.87;99913.75;4986107;28;20069;-79
2022/08/22 16:03:27;;;;;;;11.27;1.98;;;;;;;28.34;35.45;99917.22;4980081;28;20150;-79
2022/08/22 16:06:33;;;;;;;9.27;1.23;;;;;;;28.15;36.29;99909.91;4991998;28;20577;-79
2022/08/22 16:09:30;;;;;;;1.00;0.70;;;;;;;28.36;33.32;99914.72;4994423;28;20065;-79
2022/08/22 16:12:34;;;;;;;6.20;0.75;;;;;;;28.26;36.31;99911.09;4993201;28;20049;-80
2022/08/22 16:15:48;;;;;;;5.18;0.77;;;;;;;28.21;35.37;99916.50;4996167;28;20561;-79